createdAt,value
2018-07-20T00:02:51.439Z,2.43
2018-07-20T00:07:54.730Z,4.13
2018-07-20T00:12:57.979Z,4.27
2018-07-20T00:18:01.270Z,2.33
2018-07-20T00:23:05.439Z,2.13
2018-07-20T00:28:08.743Z,2.23
2018-07-20T00:33:12.013Z,2.40
2018-07-20T00:38:15.302Z,3.10
2018-07-20T00:43:18.590Z,2.53
2018-07-20T00:48:21.834Z,3.10
2018-07-20T00:53:25.163Z,2.67
2018-07-20T00:58:28.451Z,2.67
2018-07-20T01:03:31.705Z,2.50
2018-07-20T01:08:35.146Z,2.70
2018-07-20T01:13:38.609Z,3.17
2018-07-20T01:18:41.879Z,3.40
2018-07-20T01:23:45.183Z,2.43
2018-07-20T01:28:48.472Z,3.30
2018-07-20T01:33:51.746Z,2.27
2018-07-20T01:38:55.035Z,3.63
2018-07-20T01:43:58.330Z,3.63
2018-07-20T01:49:01.590Z,2.73
2018-07-20T01:54:04.950Z,2.67
2018-07-20T01:59:08.230Z,3.87
2018-07-20T02:04:11.482Z,2.43
2018-07-20T02:09:14.741Z,2.33
2018-07-20T02:14:18.214Z,4.00
2018-07-20T02:19:22.064Z,2.30
2018-07-20T02:24:25.334Z,3.10
2018-07-20T02:29:28.610Z,2.70
2018-07-20T02:34:31.888Z,2.53
2018-07-20T02:39:35.257Z,4.67
2018-07-20T02:44:38.561Z,3.23
2018-07-20T02:49:41.859Z,5.63
2018-07-20T02:54:45.120Z,3.13
2018-07-20T02:59:48.394Z,2.23
2018-07-20T03:04:51.653Z,3.13
2018-07-20T03:10:01.383Z,2.97
2018-07-20T03:15:04.840Z,4.17
2018-07-20T03:20:08.083Z,4.87
2018-07-20T03:25:11.387Z,3.93
2018-07-20T03:30:14.646Z,3.03
2018-07-20T03:35:17.882Z,3.03
2018-07-20T03:40:21.598Z,4.33
2018-07-20T03:45:24.850Z,3.97
2018-07-20T03:50:28.112Z,3.17
2018-07-20T03:55:31.678Z,3.47
2018-07-20T04:00:34.987Z,3.27
2018-07-20T04:05:38.262Z,3.50
2018-07-20T04:10:41.551Z,3.43
2018-07-20T04:15:45.054Z,3.33
2018-07-20T04:20:48.422Z,3.03
2018-07-20T04:25:51.799Z,3.83
2018-07-20T04:30:55.036Z,6.23
2018-07-20T04:35:58.276Z,4.27
2018-07-20T04:41:01.579Z,4.00
2018-07-20T04:46:04.836Z,4.17
2018-07-20T04:51:08.093Z,3.07
2018-07-20T04:56:11.458Z,4.33
2018-07-20T05:01:14.764Z,3.97
2018-07-20T05:06:18.119Z,5.33
2018-07-20T05:11:21.707Z,4.87
2018-07-20T05:16:24.974Z,6.20
2018-07-20T05:21:28.316Z,4.63
2018-07-20T05:26:31.666Z,5.10
2018-07-20T05:31:35.003Z,6.13
2018-07-20T05:36:38.250Z,6.87
2018-07-20T05:41:41.588Z,5.00
2018-07-20T05:46:44.844Z,6.37
2018-07-20T05:51:48.150Z,7.33
2018-07-20T05:56:51.594Z,5.57
2018-07-20T06:01:54.888Z,7.03
2018-07-20T06:06:58.206Z,7.17
2018-07-20T06:12:01.567Z,8.30
2018-07-20T06:17:05.014Z,9.17
2018-07-20T06:22:08.371Z,10.23
2018-07-20T06:27:11.704Z,7.50
2018-07-20T06:32:14.929Z,8.47
2018-07-20T06:37:18.180Z,7.77
2018-07-20T06:42:21.473Z,9.10
2018-07-20T06:47:24.755Z,7.80
2018-07-20T06:52:28.060Z,8.40
2018-07-20T06:57:31.981Z,8.30
2018-07-20T07:02:35.540Z,8.60
2018-07-20T07:07:38.817Z,9.33
2018-07-20T07:12:42.102Z,11.47
2018-07-20T07:17:45.521Z,11.47
2018-07-20T07:22:48.788Z,8.30
2018-07-20T07:27:52.325Z,9.37
2018-07-20T07:32:55.771Z,7.53
2018-07-20T07:37:59.022Z,7.97
2018-07-20T07:43:02.265Z,7.93
2018-07-20T07:48:05.532Z,7.30
2018-07-20T07:53:08.831Z,8.30
2018-07-20T07:58:12.210Z,6.13
2018-07-20T08:03:15.538Z,7.23
2018-07-20T08:08:18.693Z,9.23
2018-07-20T08:13:21.942Z,12.33
2018-07-20T08:18:25.222Z,7.73
2018-07-20T08:23:28.479Z,9.93
2018-07-20T08:28:31.750Z,7.00
2018-07-20T08:33:34.995Z,8.60
2018-07-20T08:38:38.343Z,7.60
2018-07-20T08:43:41.844Z,7.80
2018-07-20T08:48:45.186Z,10.00
2018-07-20T08:53:48.531Z,10.43
2018-07-20T08:58:51.833Z,7.73
2018-07-20T09:03:55.110Z,7.73
2018-07-20T09:08:58.362Z,8.37
2018-07-20T09:14:01.631Z,9.13
2018-07-20T09:19:05.006Z,7.40
2018-07-20T09:24:08.258Z,8.53
2018-07-20T09:29:11.689Z,6.67
2018-07-20T09:34:15.950Z,6.27
2018-07-20T09:39:19.219Z,7.10
2018-07-20T09:44:22.822Z,6.23
2018-07-20T09:49:26.051Z,7.33
2018-07-20T09:54:29.306Z,6.57
2018-07-20T09:59:33.072Z,6.53
2018-07-20T10:04:36.291Z,6.23
2018-07-20T10:09:39.551Z,5.90
2018-07-20T10:14:42.817Z,6.97
2018-07-20T10:19:46.082Z,6.60
2018-07-20T10:24:49.355Z,7.40
2018-07-20T10:29:52.638Z,9.00
2018-07-20T10:34:55.913Z,7.33
2018-07-20T10:39:59.224Z,8.07
2018-07-20T10:45:02.510Z,6.70
2018-07-20T10:50:06.112Z,8.93
2018-07-20T10:55:09.447Z,8.33
2018-07-20T11:00:12.926Z,5.87
2018-07-20T11:05:16.230Z,7.70
2018-07-20T11:10:19.528Z,7.47
2018-07-20T11:15:22.884Z,7.93
2018-07-20T11:20:26.301Z,7.33
2018-07-20T11:25:29.543Z,6.23
2018-07-20T11:30:32.855Z,5.97
2018-07-20T11:35:36.141Z,5.50
2018-07-20T11:40:39.423Z,5.27
2018-07-20T11:45:42.806Z,6.57
2018-07-20T11:50:46.279Z,5.87
2018-07-20T11:55:49.549Z,4.97
2018-07-20T12:00:52.850Z,5.57
2018-07-20T12:05:56.105Z,7.47
2018-07-20T12:10:59.411Z,7.07
2018-07-20T12:16:05.306Z,6.07
2018-07-20T12:21:08.586Z,5.73
2018-07-20T12:26:11.872Z,5.83
2018-07-20T12:31:15.187Z,4.37
2018-07-20T12:36:18.457Z,6.20
2018-07-20T12:41:21.689Z,5.57
2018-07-20T12:46:24.937Z,7.13
2018-07-20T12:51:28.182Z,4.73
2018-07-20T12:56:31.415Z,5.17
2018-07-20T13:01:34.663Z,5.03
2018-07-20T13:06:37.906Z,4.70
2018-07-20T13:11:41.795Z,4.60
2018-07-20T13:16:45.051Z,4.13
2018-07-20T13:21:48.342Z,6.53
2018-07-20T13:26:51.582Z,4.37
2018-07-20T13:31:54.860Z,3.37
2018-07-20T13:36:58.159Z,3.10
2018-07-20T13:42:01.420Z,3.83
2018-07-20T13:47:04.683Z,11.83
2018-07-20T13:52:07.927Z,8.83
2018-07-20T13:57:11.166Z,6.47
2018-07-20T14:02:14.421Z,5.93
2018-07-20T14:07:17.746Z,3.50
2018-07-20T14:12:20.984Z,3.47
2018-07-20T14:17:25.163Z,3.30
2018-07-20T14:22:28.535Z,3.43
2018-07-20T14:27:31.802Z,6.33
2018-07-20T14:32:35.054Z,3.70
2018-07-20T14:37:38.323Z,4.13
2018-07-20T14:42:41.680Z,3.07
2018-07-20T14:47:45.027Z,4.93
2018-07-20T14:52:48.258Z,3.67
2018-07-20T14:57:51.560Z,3.73
2018-07-20T15:02:54.795Z,3.20
2018-07-20T15:07:58.067Z,3.77
2018-07-20T15:13:01.283Z,3.80
2018-07-20T15:18:04.766Z,6.23
2018-07-20T15:23:08.083Z,4.50
2018-07-20T15:28:11.337Z,4.03
2018-07-20T15:33:14.721Z,3.57
2018-07-20T15:38:17.961Z,4.33
2018-07-20T15:43:21.310Z,3.63
2018-07-20T15:48:24.559Z,3.07
2018-07-20T15:53:42.863Z,3.07
2018-07-20T15:58:31.071Z,5.10
2018-07-20T16:03:34.353Z,3.03
2018-07-20T16:08:37.790Z,4.00
2018-07-20T16:13:41.057Z,4.00
2018-07-20T16:18:46.239Z,3.40
2018-07-20T16:23:49.510Z,4.37
2018-07-20T16:28:52.889Z,5.33
2018-07-20T16:33:56.147Z,3.93
2018-07-20T16:38:59.478Z,5.10
2018-07-20T16:44:02.914Z,4.47
2018-07-20T16:49:06.500Z,6.80
2018-07-20T16:54:09.835Z,7.10
2018-07-20T16:59:13.256Z,4.53
2018-07-20T17:04:16.454Z,4.33
2018-07-20T17:09:19.714Z,3.43
2018-07-20T17:14:23.043Z,4.13
2018-07-20T17:19:26.362Z,4.73
2018-07-20T17:24:29.686Z,4.07
2018-07-20T17:29:32.931Z,6.10
2018-07-20T17:34:36.311Z,5.23
2018-07-20T17:39:39.546Z,5.87
2018-07-20T17:44:42.807Z,4.63
2018-07-20T17:49:46.130Z,4.70
2018-07-20T17:54:49.408Z,4.50
2018-07-20T17:59:52.675Z,4.20
2018-07-20T18:04:55.926Z,5.47
2018-07-20T18:09:59.064Z,4.33
2018-07-20T18:15:02.369Z,3.73
2018-07-20T18:20:05.757Z,5.47
2018-07-20T18:25:09.111Z,4.97
2018-07-20T18:30:12.430Z,6.90
2018-07-20T18:35:15.678Z,4.03
2018-07-20T18:40:19.042Z,3.67
2018-07-20T18:45:22.348Z,5.63
2018-07-20T18:50:25.604Z,5.60
2018-07-20T18:55:28.908Z,3.93
2018-07-20T19:00:32.157Z,5.30
2018-07-20T19:05:35.995Z,3.60
2018-07-20T19:10:39.329Z,4.50
2018-07-20T19:15:42.628Z,3.20
2018-07-20T19:20:46.119Z,3.60
2018-07-20T19:25:50.396Z,3.63
2018-07-20T19:30:53.880Z,4.07
2018-07-20T19:35:57.971Z,6.67
2018-07-20T19:41:01.479Z,4.13
2018-07-20T19:46:04.852Z,3.83
2018-07-20T19:51:08.205Z,8.30
2018-07-20T19:56:11.809Z,3.17
2018-07-20T20:01:15.215Z,4.70
2018-07-20T20:06:18.695Z,4.17
2018-07-20T20:11:21.949Z,3.60
2018-07-20T20:16:25.748Z,3.90
2018-07-20T20:21:29.257Z,4.63
2018-07-20T20:26:32.525Z,5.47
2018-07-20T20:31:35.795Z,3.23
2018-07-20T20:36:39.152Z,4.63
2018-07-20T20:41:42.399Z,3.83
2018-07-20T20:46:45.695Z,3.07
2018-07-20T20:51:49.155Z,4.40
2018-07-20T20:56:52.405Z,3.73
2018-07-20T21:01:55.674Z,4.20
2018-07-20T21:06:58.986Z,3.93
2018-07-20T21:12:02.188Z,3.33
2018-07-20T21:17:05.319Z,2.87
2018-07-20T21:22:08.582Z,3.37
2018-07-20T21:27:11.891Z,4.20
2018-07-20T21:32:15.132Z,4.60
2018-07-20T21:37:18.772Z,3.40
2018-07-20T21:42:22.124Z,4.33
2018-07-20T21:47:25.370Z,3.47
2018-07-20T21:52:28.869Z,6.63
2018-07-20T21:57:32.276Z,5.13
2018-07-20T22:02:35.747Z,3.63
2018-07-20T22:07:39.016Z,3.37
2018-07-20T22:12:42.276Z,5.67
2018-07-20T22:17:45.518Z,4.97
2018-07-20T22:22:48.770Z,3.20
2018-07-20T22:27:52.052Z,4.07
2018-07-20T22:32:55.315Z,3.47
2018-07-20T22:37:58.667Z,3.30
2018-07-20T22:43:01.942Z,4.53
2018-07-20T22:48:04.919Z,4.13
2018-07-20T22:53:08.268Z,5.77
2018-07-20T22:58:11.550Z,3.13
2018-07-20T23:03:14.970Z,3.70
2018-07-20T23:09:21.469Z,3.93
2018-07-20T23:14:24.723Z,3.40
2018-07-20T23:19:28.009Z,3.43
2018-07-20T23:24:31.259Z,3.67
2018-07-20T23:29:34.549Z,3.80
2018-07-20T23:34:37.794Z,4.80
2018-07-20T23:39:41.043Z,3.43
2018-07-20T23:44:44.429Z,4.40
2018-07-20T23:49:47.726Z,3.70
2018-07-20T23:54:50.698Z,3.40
2018-07-20T23:59:54.078Z,3.97
